Time;durP1;ratioP1;P1;durP2;ratioP2;P2;SDS_P1;SDS_P2;PMS_P1;PMS_P2;Temp;Humidity;BMP_temperature;BMP_pressure;BME280_temperature;BME280_humidity;BME280_pressure;Samples;Min_cycle;Max_cycle;Signal;HPM_P1;HPM_P2
2023/06/19 00:02:17;;;;;;;10.57;9.67;;;20.80;99.90;;;;;;5059812;28;20209;-61
2023/06/19 00:04:43;;;;;;;9.87;8.87;;;20.70;99.90;;;;;;5060133;28;20680;-61
2023/06/19 00:07:08;;;;;;;9.87;9.10;;;20.80;99.90;;;;;;5059737;28;20892;-61
2023/06/19 00:09:34;;;;;;;10.53;9.73;;;20.80;99.90;;;;;;5059668;28;20690;-61
2023/06/19 00:12:01;;;;;;;10.80;9.80;;;20.70;99.90;;;;;;5057086;28;20236;-61
2023/06/19 00:14:26;;;;;;;9.93;9.03;;;20.70;99.90;;;;;;5058871;28;20226;-61
2023/06/19 00:16:52;;;;;;;11.00;9.93;;;20.60;99.90;;;;;;5059090;28;20251;-61
2023/06/19 00:19:17;;;;;;;10.57;9.77;;;20.60;99.90;;;;;;5059047;28;20209;-62
2023/06/19 00:21:43;;;;;;;11.13;10.13;;;20.60;99.90;;;;;;5059151;28;20583;-62
2023/06/19 00:24:09;;;;;;;9.67;8.87;;;20.60;99.90;;;;;;5059348;28;20198;-61
2023/06/19 00:26:35;;;;;;;10.17;9.27;;;20.60;99.90;;;;;;5057200;28;20565;-62
2023/06/19 00:29:01;;;;;;;10.47;9.57;;;20.70;99.90;;;;;;5059040;28;20200;-62
2023/06/19 00:31:27;;;;;;;10.93;9.93;;;20.60;99.90;;;;;;5059309;28;20718;-61
2023/06/19 00:33:52;;;;;;;10.70;9.87;;;20.70;99.90;;;;;;5059084;28;20648;-61
2023/06/19 00:36:23;;;;;;;10.67;9.63;;;20.70;99.90;;;;;;5058963;28;20226;-61
2023/06/19 00:38:48;;;;;;;10.53;9.43;;;20.80;99.90;;;;;;5058606;28;20850;-62
2023/06/19 00:41:16;;;;;;;10.30;9.40;;;20.70;99.90;;;;;;5058832;28;20233;-62
2023/06/19 00:43:41;;;;;;;10.67;9.73;;;20.70;99.90;;;;;;5057972;28;20208;-61
2023/06/19 00:46:07;;;;;;;10.93;10.03;;;20.70;99.90;;;;;;5058246;28;20205;-61
2023/06/19 00:48:34;;;;;;;10.40;9.53;;;20.70;99.90;;;;;;5057305;28;20209;-61
2023/06/19 00:50:59;;;;;;;10.57;9.67;;;20.60;99.90;;;;;;5049149;28;20275;-61
2023/06/19 00:53:25;;;;;;;10.60;9.63;;;20.60;99.90;;;;;;5058467;28;20664;-61
2023/06/19 00:55:52;;;;;;;10.57;9.67;;;20.60;99.90;;;;;;5058267;28;20202;-62
2023/06/19 00:58:19;;;;;;;10.83;9.93;;;20.60;99.90;;;;;;5057179;28;20292;-62
2023/06/19 01:00:48;;;;;;;10.47;9.60;;;20.50;99.90;;;;;;5055806;28;20213;-63
2023/06/19 01:03:14;;;;;;;11.53;10.57;;;20.50;99.90;;;;;;5058504;28;20208;-62
2023/06/19 01:05:40;;;;;;;10.87;9.90;;;20.50;99.90;;;;;;5057910;28;20210;-62
2023/06/19 01:08:24;;;;;;;10.73;9.73;;;20.50;99.90;;;;;;5058475;28;20572;-61
2023/06/19 01:10:56;;;;;;;11.47;10.30;;;20.40;99.90;;;;;;5058239;28;20790;-62
2023/06/19 01:13:36;;;;;;;10.63;9.83;;;20.50;99.90;;;;;;5058201;28;20543;-64
2023/06/19 01:16:04;;;;;;;10.87;9.93;;;20.40;99.90;;;;;;5057344;28;20273;-64
2023/06/19 01:18:31;;;;;;;12.03;11.03;;;20.30;99.90;;;;;;5057655;28;20226;-61
2023/06/19 01:20:57;;;;;;;11.43;10.53;;;20.30;99.90;;;;;;5055961;28;20229;-61
2023/06/19 01:23:22;;;;;;;10.70;9.70;;;20.30;99.90;;;;;;5056706;28;20212;-62
2023/06/19 01:25:48;;;;;;;11.67;10.67;;;20.30;99.90;;;;;;5049861;28;20208;-61
2023/06/19 01:28:14;;;;;;;10.13;9.33;;;20.20;99.90;;;;;;5057925;28;20209;-61
2023/06/19 01:30:41;;;;;;;12.37;11.37;;;20.20;99.90;;;;;;5058030;28;20263;-61
2023/06/19 01:33:15;;;;;;;11.20;10.07;;;20.20;99.90;;;;;;5057367;28;20217;-61
2023/06/19 01:35:43;;;;;;;11.73;10.73;;;20.30;99.90;;;;;;5057974;28;20232;-62
2023/06/19 01:38:09;;;;;;;11.20;10.30;;;20.30;99.90;;;;;;5057515;28;20385;-62
2023/06/19 01:40:35;;;;;;;11.63;10.73;;;20.20;99.90;;;;;;5057457;28;20332;-62
2023/06/19 01:43:02;;;;;;;12.27;11.07;;;20.30;99.90;;;;;;5055766;28;20208;-61
2023/06/19 01:45:28;;;;;;;11.70;10.50;;;20.20;99.90;;;;;;5057632;28;20212;-62
2023/06/19 01:47:54;;;;;;;11.53;10.57;;;20.30;99.90;;;;;;5057722;28;20218;-62
2023/06/19 01:50:22;;;;;;;12.33;11.33;;;20.30;99.90;;;;;;5057332;28;20211;-62
2023/06/19 01:52:47;;;;;;;11.80;10.90;;;20.30;99.90;;;;;;5056200;28;20266;-62
2023/06/19 01:55:14;;;;;;;13.23;11.93;;;20.10;99.90;;;;;;5055589;28;20209;-62
2023/06/19 01:57:39;;;;;;;12.47;11.53;;;20.10;99.90;;;;;;5055997;28;20200;-62
2023/06/19 02:00:07;;;;;;;12.40;10.13;;;20.20;99.90;;;;;;5056185;28;20329;-61
2023/06/19 02:02:33;;;;;;;11.67;10.73;;;20.20;99.90;;;;;;5056943;28;20209;-61
2023/06/19 02:04:59;;;;;;;12.83;11.83;;;20.10;99.90;;;;;;5057504;28;20209;-61
2023/06/19 02:07:24;;;;;;;12.93;11.77;;;20.20;99.90;;;;;;5055108;28;20203;-62
2023/06/19 02:09:50;;;;;;;12.03;11.07;;;20.20;99.90;;;;;;5057272;28;20685;-62
2023/06/19 02:12:15;;;;;;;13.60;12.50;;;20.20;99.90;;;;;;5057474;28;20261;-61
2023/06/19 02:14:40;;;;;;;13.60;12.40;;;20.20;99.90;;;;;;5056936;28;20186;-61
2023/06/19 02:17:06;;;;;;;12.73;11.63;;;20.20;99.90;;;;;;5056832;28;20214;-61
2023/06/19 02:19:31;;;;;;;13.70;12.60;;;20.10;99.90;;;;;;5057140;28;20216;-61
2023/06/19 02:21:57;;;;;;;12.00;11.00;;;20.10;99.90;;;;;;5055111;28;20259;-62
2023/06/19 02:24:22;;;;;;;12.17;11.13;;;20.10;99.90;;;;;;5056976;28;20289;-62
2023/06/19 02:26:48;;;;;;;12.67;11.67;;;20.10;99.90;;;;;;5056515;28;20677;-62
2023/06/19 02:29:13;;;;;;;12.70;11.60;;;19.90;99.90;;;;;;5056909;28;20199;-61
2023/06/19 02:31:40;;;;;;;12.33;11.33;;;19.90;99.90;;;;;;5054568;28;20703;-61
2023/06/19 02:34:05;;;;;;;12.80;11.53;;;19.90;99.90;;;;;;5049232;28;20218;-62
2023/06/19 02:36:31;;;;;;;12.67;11.57;;;19.80;99.90;;;;;;5046919;28;20209;-62
2023/06/19 02:38:56;;;;;;;12.20;11.20;;;19.80;99.90;;;;;;5045996;28;20238;-61
2023/06/19 02:41:22;;;;;;;13.03;11.93;;;19.80;99.90;;;;;;5046316;28;20702;-61
2023/06/19 02:43:48;;;;;;;13.10;11.93;;;19.80;99.90;;;;;;5046456;28;20194;-61
2023/06/19 02:46:14;;;;;;;13.00;12.00;;;19.90;99.90;;;;;;5043857;28;20228;-63
2023/06/19 02:48:39;;;;;;;12.33;11.13;;;19.90;99.90;;;;;;5046302;28;20736;-61
2023/06/19 02:51:05;;;;;;;12.87;11.77;;;19.90;99.90;;;;;;5046705;28;20555;-61
2023/06/19 02:53:30;;;;;;;12.40;11.40;;;19.80;99.90;;;;;;5046924;28;20215;-62
2023/06/19 02:55:55;;;;;;;11.97;10.93;;;19.80;99.90;;;;;;5046745;28;20213;-62
2023/06/19 02:58:21;;;;;;;12.33;11.23;;;19.80;99.90;;;;;;5046729;28;20288;-62
2023/06/19 03:00:47;;;;;;;13.03;11.93;;;19.80;99.90;;;;;;5044134;28;20285;-63
2023/06/19 03:03:12;;;;;;;13.03;12.00;;;19.70;99.90;;;;;;5046623;28;20232;-62
2023/06/19 03:05:38;;;;;;;12.00;10.93;;;19.80;99.90;;;;;;5046241;28;20197;-62
2023/06/19 03:08:04;;;;;;;12.60;11.50;;;19.80;99.90;;;;;;5046404;28;20902;-62
2023/06/19 03:10:30;;;;;;;12.73;11.63;;;19.70;99.90;;;;;;5050076;28;20321;-62
2023/06/19 03:12:55;;;;;;;13.10;11.90;;;19.70;99.90;;;;;;5048671;28;20207;-62
2023/06/19 03:15:21;;;;;;;12.67;11.57;;;19.80;99.90;;;;;;5050852;28;20233;-62
2023/06/19 03:17:47;;;;;;;13.23;12.13;;;19.80;99.90;;;;;;5050743;28;20687;-62
2023/06/19 03:20:12;;;;;;;12.83;11.73;;;19.90;99.90;;;;;;5045561;28;20216;-62
2023/06/19 03:22:41;;;;;;;12.70;11.70;;;19.90;99.90;;;;;;5050847;28;20202;-63
2023/06/19 03:25:08;;;;;;;13.33;12.17;;;19.90;99.90;;;;;;5050435;28;20201;-62
2023/06/19 03:27:33;;;;;;;12.63;11.53;;;19.90;99.90;;;;;;5049753;28;20528;-63
2023/06/19 03:29:59;;;;;;;12.90;11.90;;;19.90;99.90;;;;;;5053447;28;20196;-62
2023/06/19 03:32:24;;;;;;;13.83;12.53;;;20.00;99.90;;;;;;5049059;28;20217;-62
2023/06/19 03:34:50;;;;;;;13.57;12.43;;;20.10;99.90;;;;;;5049752;28;20336;-62
2023/06/19 03:37:16;;;;;;;13.00;11.90;;;20.10;99.90;;;;;;5046511;28;20186;-62
2023/06/19 03:39:42;;;;;;;13.53;12.43;;;20.10;99.90;;;;;;5048995;28;20698;-62
2023/06/19 03:42:08;;;;;;;14.60;12.07;;;20.10;99.90;;;;;;5049381;28;20228;-62
2023/06/19 03:44:33;;;;;;;13.63;12.47;;;20.20;99.90;;;;;;5050480;28;20202;-62
2023/06/19 03:46:59;;;;;;;12.53;11.53;;;20.20;99.90;;;;;;5048377;28;20212;-62
2023/06/19 03:49:24;;;;;;;13.10;12.10;;;20.20;99.90;;;;;;5050206;28;20608;-61
2023/06/19 03:51:50;;;;;;;13.23;12.10;;;20.20;99.90;;;;;;5048389;28;20275;-62
2023/06/19 03:54:15;;;;;;;13.13;12.03;;;20.10;99.90;;;;;;5050081;28;20213;-62
2023/06/19 03:56:41;;;;;;;12.07;11.00;;;20.00;99.90;;;;;;5048440;28;20204;-62
2023/06/19 03:59:07;;;;;;;11.87;10.97;;;20.00;99.90;;;;;;5049495;28;20236;-62
2023/06/19 04:01:32;;;;;;;12.00;11.00;;;20.10;99.90;;;;;;5048893;28;20210;-61
2023/06/19 04:03:59;;;;;;;12.93;12.00;;;20.00;99.90;;;;;;5049010;28;20606;-62
2023/06/19 04:06:24;;;;;;;12.83;11.73;;;20.10;99.90;;;;;;5051326;28;20221;-63
2023/06/19 04:08:49;;;;;;;12.17;10.97;;;20.10;99.90;;;;;;5045475;28;20195;-62
2023/06/19 04:11:15;;;;;;;12.30;11.30;;;20.10;99.90;;;;;;5049937;28;20209;-62
2023/06/19 04:13:40;;;;;;;12.93;11.73;;;20.10;99.90;;;;;;5051479;28;20228;-62
2023/06/19 04:16:06;;;;;;;12.00;10.90;;;20.10;99.90;;;;;;5047159;28;20269;-62
2023/06/19 04:18:31;;;;;;;12.77;11.67;;;19.90;99.90;;;;;;5050017;28;20214;-62
2023/06/19 04:20:57;;;;;;;13.27;12.00;;;20.00;99.90;;;;;;5048276;28;20221;-63
2023/06/19 04:23:22;;;;;;;13.47;12.27;;;20.00;99.90;;;;;;5047319;28;20218;-62
2023/06/19 04:25:48;;;;;;;12.90;11.83;;;20.00;99.90;;;;;;5048632;28;20192;-62
2023/06/19 04:28:14;;;;;;;12.50;11.40;;;20.10;99.90;;;;;;5048598;28;20342;-62
2023/06/19 04:30:39;;;;;;;12.50;11.37;;;20.00;99.90;;;;;;5050854;28;20224;-62
2023/06/19 04:33:05;;;;;;;11.93;10.83;;;20.00;99.90;;;;;;5046058;28;20568;-63
2023/06/19 04:35:31;;;;;;;12.73;11.43;;;19.90;99.90;;;;;;5048341;28;20213;-63
2023/06/19 04:38:00;;;;;;;12.30;11.30;;;20.00;99.90;;;;;;5047514;28;20216;-62
2023/06/19 04:40:26;;;;;;;11.73;10.73;;;20.00;99.90;;;;;;5048973;28;20265;-63
2023/06/19 04:42:53;;;;;;;12.40;11.40;;;20.00;99.90;;;;;;5048732;28;20272;-62
2023/06/19 04:45:19;;;;;;;12.63;11.53;;;20.10;99.90;;;;;;5049202;28;20232;-63
2023/06/19 04:47:45;;;;;;;12.33;11.23;;;20.20;99.90;;;;;;5046675;28;20224;-66
2023/06/19 04:50:11;;;;;;;12.73;11.63;;;20.20;99.90;;;;;;5048345;28;20204;-64
2023/06/19 04:52:37;;;;;;;12.90;11.80;;;20.10;99.90;;;;;;5048392;28;20279;-63
2023/06/19 04:55:05;;;;;;;13.93;11.77;;;20.10;99.90;;;;;;5051658;28;20514;-63
2023/06/19 04:57:30;;;;;;;13.17;12.00;;;20.20;99.90;;;;;;5051217;28;20202;-62
2023/06/19 04:59:56;;;;;;;12.97;11.97;;;20.10;99.90;;;;;;5047815;28;20220;-62
2023/06/19 05:02:23;;;;;;;13.13;12.10;;;20.10;99.90;;;;;;5045116;28;20263;-62
2023/06/19 05:04:48;;;;;;;12.20;11.20;;;20.10;99.90;;;;;;5047928;28;20198;-62
2023/06/19 05:07:15;;;;;;;12.40;11.20;;;20.10;99.90;;;;;;5049116;28;21149;-62
2023/06/19 05:09:40;;;;;;;11.87;10.87;;;20.20;99.90;;;;;;5049741;28;20980;-63
2023/06/19 05:12:06;;;;;;;14.33;12.93;;;20.20;99.90;;;;;;5046148;28;20209;-62
2023/06/19 05:14:31;;;;;;;12.97;11.97;;;20.20;99.90;;;;;;5047439;28;20246;-62
2023/06/19 05:16:57;;;;;;;13.90;12.57;;;20.20;99.90;;;;;;5047926;28;20255;-63
2023/06/19 05:19:22;;;;;;;14.73;12.90;;;20.20;99.90;;;;;;5046107;28;20226;-62
2023/06/19 05:21:48;;;;;;;13.20;12.20;;;20.20;99.90;;;;;;5048114;28;20240;-62
2023/06/19 05:24:13;;;;;;;13.23;12.03;;;20.10;99.90;;;;;;5048905;28;20198;-63
2023/06/19 05:26:39;;;;;;;13.33;12.23;;;20.10;99.90;;;;;;5047977;28;20197;-63
2023/06/19 05:29:08;;;;;;;13.10;12.00;;;20.20;99.90;;;;;;5048387;28;20196;-64
2023/06/19 05:31:34;;;;;;;13.93;12.73;;;20.20;99.90;;;;;;5047733;28;20194;-63
2023/06/19 05:33:59;;;;;;;14.27;12.30;;;20.20;99.90;;;;;;5055318;28;20213;-62
2023/06/19 05:36:25;;;;;;;13.67;12.57;;;20.30;99.90;;;;;;5057678;28;20283;-62
2023/06/19 05:38:50;;;;;;;13.50;12.30;;;20.30;99.90;;;;;;5045752;28;20961;-63
2023/06/19 05:41:16;;;;;;;13.57;12.47;;;20.40;99.90;;;;;;5046957;28;20252;-63
2023/06/19 05:43:41;;;;;;;15.20;13.80;;;20.40;99.90;;;;;;5047602;28;20231;-63
2023/06/19 05:46:07;;;;;;;14.60;13.07;;;20.40;99.90;;;;;;5053561;28;20235;-63
2023/06/19 05:48:32;;;;;;;13.60;12.30;;;20.40;99.90;;;;;;5061706;28;20255;-62
2023/06/19 05:50:58;;;;;;;13.80;12.57;;;20.40;99.90;;;;;;5062133;28;20201;-62
2023/06/19 05:53:23;;;;;;;15.53;14.13;;;20.40;99.90;;;;;;5061034;28;20214;-62
2023/06/19 05:55:49;;;;;;;13.83;12.63;;;20.50;99.90;;;;;;5063709;28;20200;-62
2023/06/19 05:58:14;;;;;;;13.67;12.53;;;20.40;99.90;;;;;;5065037;28;20310;-65
2023/06/19 06:00:40;;;;;;;14.23;13.03;;;20.50;99.90;;;;;;5062646;28;20215;-73
2023/06/19 06:03:05;;;;;;;13.90;12.70;;;20.50;99.90;;;;;;5049269;28;20598;-73
2023/06/19 06:05:30;;;;;;;14.47;13.27;;;20.40;99.90;;;;;;5046282;28;20238;-72
2023/06/19 06:07:56;;;;;;;14.23;13.03;;;20.50;99.90;;;;;;5045053;28;20747;-73
2023/06/19 06:10:23;;;;;;;14.50;13.33;;;20.50;99.90;;;;;;5046689;28;20296;-74
2023/06/19 06:12:49;;;;;;;14.57;13.13;;;20.50;99.90;;;;;;5048013;28;20201;-72
2023/06/19 06:15:15;;;;;;;14.97;13.43;;;20.60;99.90;;;;;;5052464;28;20208;-72
2023/06/19 06:17:40;;;;;;;10.97;10.03;;;20.60;99.90;;;;;;5045113;28;20216;-70
2023/06/19 06:20:12;;;;;;;14.03;12.80;;;20.70;99.90;;;;;;5057822;28;20200;-70
2023/06/19 06:22:41;;;;;;;13.90;12.63;;;20.70;99.90;;;;;;5060192;28;20197;-71
2023/06/19 06:25:07;;;;;;;14.43;13.17;;;20.70;99.90;;;;;;5057992;28;20197;-71
2023/06/19 06:27:34;;;;;;;14.13;12.70;;;20.80;99.90;;;;;;5056728;28;20218;-71
2023/06/19 06:30:00;;;;;;;13.93;12.53;;;20.80;99.90;;;;;;5056263;28;20225;-71
2023/06/19 06:32:27;;;;;;;14.13;12.93;;;20.90;99.90;;;;;;5058091;28;20320;-72
2023/06/19 06:34:52;;;;;;;14.37;13.10;;;21.00;99.90;;;;;;5058806;28;20216;-71
2023/06/19 06:37:22;;;;;;;14.30;13.00;;;21.10;99.90;;;;;;5063706;28;20194;-72
2023/06/19 06:39:49;;;;;;;13.07;11.80;;;21.30;99.90;;;;;;5058368;28;20540;-73
2023/06/19 06:42:15;;;;;;;13.63;12.43;;;21.20;99.90;;;;;;5061740;28;20212;-72
2023/06/19 06:44:41;;;;;;;13.13;12.00;;;21.10;99.90;;;;;;5056560;28;20194;-70
2023/06/19 06:47:06;;;;;;;15.10;12.73;;;21.10;99.90;;;;;;5047272;28;20216;-71
2023/06/19 06:49:31;;;;;;;15.57;14.03;;;21.10;99.90;;;;;;5046227;28;20204;-73
2023/06/19 06:51:57;;;;;;;14.60;12.97;;;21.10;99.90;;;;;;5055161;28;20213;-74
2023/06/19 06:54:23;;;;;;;13.40;12.00;;;21.20;99.90;;;;;;5055074;28;20205;-72
2023/06/19 06:56:48;;;;;;;15.40;12.90;;;21.20;99.90;;;;;;5053469;28;20734;-73
2023/06/19 06:59:16;;;;;;;13.40;12.17;;;21.30;99.90;;;;;;5046304;28;20258;-73
2023/06/19 07:01:42;;;;;;;11.93;10.93;;;21.40;99.90;;;;;;5048790;28;20756;-73
2023/06/19 07:04:08;;;;;;;13.97;12.70;;;21.50;99.90;;;;;;5048165;28;20283;-73
2023/06/19 07:06:33;;;;;;;12.03;10.93;;;21.50;99.90;;;;;;5041133;28;20199;-72
2023/06/19 07:08:58;;;;;;;16.47;14.67;;;21.50;99.90;;;;;;5046652;28;20346;-73
2023/06/19 07:11:24;;;;;;;13.90;12.67;;;21.60;99.90;;;;;;5046826;28;20202;-76
2023/06/19 07:13:50;;;;;;;14.00;12.70;;;21.70;99.90;;;;;;5052424;28;20189;-73
2023/06/19 07:16:15;;;;;;;12.30;11.23;;;21.80;99.90;;;;;;5055741;28;20668;-73
2023/06/19 07:18:41;;;;;;;13.63;12.33;;;21.80;99.90;;;;;;5060207;28;20190;-74
2023/06/19 07:21:12;;;;;;;11.90;10.67;;;21.90;99.90;;;;;;5057973;28;20220;-73
2023/06/19 07:23:40;;;;;;;14.30;12.93;;;21.90;99.90;;;;;;5042133;28;20718;-73
2023/06/19 07:26:05;;;;;;;16.27;10.53;;;22.10;99.90;;;;;;5045095;28;20201;-72
2023/06/19 07:28:30;;;;;;;18.73;12.83;;;22.20;99.90;;;;;;5056311;28;20198;-70
2023/06/19 07:30:56;;;;;;;11.43;10.53;;;22.20;99.90;;;;;;5053207;28;20561;-73
2023/06/19 07:33:21;;;;;;;13.98;12.52;;;22.20;99.90;;;;;;5053906;28;20202;-72
2023/06/19 07:35:47;;;;;;;13.57;12.13;;;22.20;99.90;;;;;;5043903;28;20210;-74
2023/06/19 07:38:12;;;;;;;13.63;12.43;;;22.30;99.90;;;;;;5045990;28;20206;-71
2023/06/19 07:40:38;;;;;;;13.73;12.63;;;22.30;99.90;;;;;;5044406;28;20263;-72
2023/06/19 07:43:03;;;;;;;13.67;12.27;;;22.40;99.90;;;;;;5045935;28;20613;-72
2023/06/19 07:45:29;;;;;;;14.30;12.97;;;22.40;99.90;;;;;;5042540;28;20285;-74
2023/06/19 07:47:55;;;;;;;13.87;12.10;;;22.50;99.90;;;;;;5044909;28;20294;-72
2023/06/19 07:50:21;;;;;;;13.00;11.90;;;22.60;99.90;;;;;;5043734;28;20194;-72
2023/06/19 07:52:47;;;;;;;13.27;12.00;;;22.70;99.90;;;;;;5045324;28;20253;-72
2023/06/19 07:55:12;;;;;;;12.20;10.93;;;22.80;99.90;;;;;;5048762;28;20213;-71
2023/06/19 07:57:38;;;;;;;13.60;12.40;;;22.80;99.90;;;;;;5047809;28;20194;-72
2023/06/19 08:00:13;;;;;;;13.73;11.88;;;22.90;99.90;;;;;;5050703;28;20186;-73
2023/06/19 08:02:41;;;;;;;12.82;11.55;;;22.80;99.90;;;;;;5047686;28;20225;-72
2023/06/19 08:05:08;;;;;;;12.95;11.77;;;22.80;99.90;;;;;;5052490;28;20474;-72
2023/06/19 08:07:34;;;;;;;13.07;11.90;;;22.70;99.90;;;;;;5059664;28;20214;-73
2023/06/19 08:10:00;;;;;;;11.70;10.70;;;22.70;99.90;;;;;;5059912;28;20259;-71
2023/06/19 08:12:26;;;;;;;12.13;10.80;;;22.70;99.90;;;;;;5051942;28;20206;-71
2023/06/19 08:14:51;;;;;;;13.60;12.27;;;22.70;99.90;;;;;;5049553;28;20293;-72
2023/06/19 08:17:19;;;;;;;12.93;11.90;;;22.80;99.90;;;;;;5049112;28;20236;-72
2023/06/19 08:19:44;;;;;;;15.70;13.33;;;22.90;99.90;;;;;;5059485;28;20225;-73
2023/06/19 08:22:10;;;;;;;12.80;11.50;;;22.90;99.90;;;;;;5055451;28;20642;-71
2023/06/19 08:24:41;;;;;;;13.83;12.50;;;22.90;99.90;;;;;;5053546;28;20206;-71
2023/06/19 08:27:07;;;;;;;12.07;11.07;;;22.90;99.90;;;;;;5054620;28;20199;-71
2023/06/19 08:29:33;;;;;;;12.27;11.13;;;22.90;99.90;;;;;;5046415;28;20199;-72
2023/06/19 08:31:58;;;;;;;13.63;12.27;;;22.90;99.90;;;;;;5048083;28;20207;-72
2023/06/19 08:34:24;;;;;;;12.47;11.37;;;23.00;99.90;;;;;;5049400;28;20276;-72
2023/06/19 08:36:49;;;;;;;13.30;12.20;;;23.00;99.90;;;;;;5058150;28;20206;-72
2023/06/19 08:39:15;;;;;;;12.85;11.75;;;23.10;99.90;;;;;;5058821;28;20825;-72
2023/06/19 08:41:41;;;;;;;12.80;11.63;;;23.20;99.90;;;;;;5057057;28;20762;-71
2023/06/19 08:44:08;;;;;;;14.17;13.07;;;23.10;99.90;;;;;;5056636;28;20230;-74
2023/06/19 08:46:36;;;;;;;13.20;11.75;;;23.10;99.90;;;;;;5049239;28;21601;-72
2023/06/19 08:49:02;;;;;;;13.83;12.43;;;23.20;99.90;;;;;;5046001;28;20198;-71
2023/06/19 08:51:30;;;;;;;13.48;10.30;;;23.20;99.90;;;;;;5046911;28;20264;-71
2023/06/19 08:54:00;;;;;;;11.27;10.38;;;23.20;99.90;;;;;;5052077;28;20202;-71
2023/06/19 08:56:25;;;;;;;12.63;11.63;;;23.20;99.90;;;;;;5046763;28;20207;-70
2023/06/19 08:58:51;;;;;;;13.40;12.27;;;23.20;99.90;;;;;;5048250;28;20206;-71
2023/06/19 09:01:19;;;;;;;13.75;12.45;;;23.30;99.90;;;;;;5048174;28;20222;-72
2023/06/19 09:03:46;;;;;;;12.50;11.10;;;23.30;99.90;;;;;;5046699;28;20203;-71
2023/06/19 09:06:16;;;;;;;14.17;12.77;;;23.20;99.90;;;;;;5048411;28;20218;-72
2023/06/19 09:08:41;;;;;;;13.52;12.25;;;23.30;99.90;;;;;;5048831;28;21038;-71
2023/06/19 09:11:07;;;;;;;14.02;12.73;;;23.40;99.90;;;;;;5049848;28;20218;-71
2023/06/19 09:13:33;;;;;;;13.40;12.13;;;23.40;99.90;;;;;;5044392;28;20210;-73
2023/06/19 09:16:04;;;;;;;13.90;12.43;;;23.40;99.90;;;;;;5048697;28;20216;-73
2023/06/19 09:18:46;;;;;;;13.15;11.95;;;23.50;99.90;;;;;;5045371;28;20222;-72
2023/06/19 09:21:24;;;;;;;12.30;11.27;;;23.40;99.90;;;;;;5043466;28;20222;-73
2023/06/19 09:23:51;;;;;;;14.37;12.97;;;23.60;99.90;;;;;;5047466;28;20193;-72
2023/06/19 09:26:18;;;;;;;14.05;12.85;;;23.60;99.90;;;;;;5045880;28;20203;-72
2023/06/19 09:28:45;;;;;;;14.23;12.95;;;23.60;99.90;;;;;;5048358;28;20206;-71
2023/06/19 09:31:12;;;;;;;15.20;13.70;;;23.60;99.90;;;;;;5047837;28;20261;-72
2023/06/19 09:33:38;;;;;;;14.65;12.35;;;23.60;99.90;;;;;;5046964;28;20202;-72
2023/06/19 09:36:05;;;;;;;12.60;11.40;;;23.60;99.90;;;;;;5044673;28;20206;-71
2023/06/19 09:38:34;;;;;;;14.25;12.93;;;23.70;99.90;;;;;;5045381;28;20222;-71
2023/06/19 09:41:04;;;;;;;14.65;13.35;;;23.70;99.90;;;;;;5051608;28;20222;-73
2023/06/19 09:43:57;;;;;;;14.63;13.15;;;23.70;99.90;;;;;;5052638;28;20194;-71
2023/06/19 09:46:26;;;;;;;13.75;12.40;;;23.60;99.90;;;;;;5044924;28;20229;-71
2023/06/19 09:48:58;;;;;;;13.50;12.40;;;23.60;99.90;;;;;;5045460;28;20191;-71
2023/06/19 09:51:30;;;;;;;11.95;10.77;;;23.60;99.90;;;;;;5044565;28;20715;-71
2023/06/19 09:53:58;;;;;;;12.60;11.52;;;23.60;99.90;;;;;;5046599;28;20198;-72
2023/06/19 09:56:25;;;;;;;12.90;11.80;;;23.70;99.90;;;;;;5042200;28;20565;-72
2023/06/19 09:58:54;;;;;;;15.32;14.02;;;23.70;99.90;;;;;;5043091;28;20214;-75
2023/06/19 10:01:20;;;;;;;13.18;12.07;;;23.80;99.90;;;;;;5046142;28;20225;-70
2023/06/19 10:03:46;;;;;;;15.13;13.60;;;24.00;99.90;;;;;;5049078;28;20632;-70
2023/06/19 10:06:16;;;;;;;15.00;12.45;;;24.00;99.90;;;;;;5044630;28;20195;-69
2023/06/19 10:08:43;;;;;;;14.20;12.90;;;24.10;99.90;;;;;;5048196;28;20203;-68
2023/06/19 10:11:10;;;;;;;14.27;13.05;;;24.10;99.90;;;;;;5045663;28;20199;-70
2023/06/19 10:13:40;;;;;;;13.30;12.10;;;24.10;99.90;;;;;;5056102;28;20924;-70
2023/06/19 10:16:07;;;;;;;13.52;12.43;;;24.10;99.90;;;;;;5057199;28;20207;-69
2023/06/19 10:18:45;;;;;;;14.27;12.95;;;24.00;99.90;;;;;;5054826;28;20291;-68
2023/06/19 10:21:17;;;;;;;14.27;12.77;;;24.10;99.90;;;;;;5056815;28;20794;-69
2023/06/19 10:23:56;;;;;;;13.70;12.50;;;24.10;99.90;;;;;;5060498;28;20193;-69
2023/06/19 10:26:33;;;;;;;13.85;12.52;;;24.00;99.90;;;;;;5053806;28;20656;-69
2023/06/19 10:28:59;;;;;;;13.45;12.35;;;24.00;99.90;;;;;;5053648;28;20683;-69
2023/06/19 10:31:24;;;;;;;14.73;13.30;;;24.00;99.90;;;;;;5052948;28;20198;-70
2023/06/19 10:33:50;;;;;;;13.35;12.27;;;24.00;99.90;;;;;;5056062;28;20960;-70
2023/06/19 10:36:18;;;;;;;13.40;12.20;;;24.00;99.90;;;;;;5055288;28;20289;-70
2023/06/19 10:38:47;;;;;;;14.05;12.85;;;24.00;99.90;;;;;;5055198;28;20325;-70
2023/06/19 10:41:19;;;;;;;13.18;12.18;;;24.00;99.90;;;;;;5055039;28;20222;-73
2023/06/19 10:43:59;;;;;;;14.05;12.90;;;24.10;99.90;;;;;;5057166;28;20194;-71
2023/06/19 10:46:29;;;;;;;14.45;13.13;;;24.10;99.90;;;;;;5056042;28;20216;-72
2023/06/19 10:49:00;;;;;;;14.57;13.40;;;24.20;99.90;;;;;;5046231;28;20249;-71
2023/06/19 10:51:29;;;;;;;17.33;15.70;;;24.20;99.90;;;;;;5045264;28;20207;-71
2023/06/19 10:53:56;;;;;;;15.65;14.15;;;24.30;99.90;;;;;;5043863;28;20213;-70
2023/06/19 10:56:22;;;;;;;14.88;13.48;;;24.30;99.90;;;;;;5047710;28;20243;-71
2023/06/19 10:58:48;;;;;;;15.48;14.18;;;24.40;99.90;;;;;;5044492;28;20684;-70
2023/06/19 11:01:14;;;;;;;15.18;13.85;;;24.40;99.90;;;;;;5046661;28;20249;-69
2023/06/19 11:03:39;;;;;;;15.85;14.30;;;24.40;99.90;;;;;;5043670;28;20204;-70
2023/06/19 11:06:05;;;;;;;15.13;13.88;;;24.40;99.90;;;;;;5044488;28;20198;-70
2023/06/19 11:08:30;;;;;;;14.32;13.23;;;24.40;99.90;;;;;;5046261;28;20199;-69
2023/06/19 11:10:56;;;;;;;16.13;14.70;;;24.40;99.90;;;;;;5046533;28;20234;-70
2023/06/19 11:13:21;;;;;;;15.02;13.70;;;24.50;99.90;;;;;;5046177;28;20194;-69
2023/06/19 11:15:51;;;;;;;17.48;15.77;;;24.70;99.90;;;;;;5049104;28;20210;-70
2023/06/19 11:18:18;;;;;;;15.32;14.02;;;24.70;99.90;;;;;;5043268;28;20284;-69
2023/06/19 11:20:53;;;;;;;14.48;13.13;;;24.70;99.90;;;;;;5045051;28;20214;-70
2023/06/19 11:23:29;;;;;;;15.27;13.98;;;24.80;99.90;;;;;;5044264;28;20229;-70
2023/06/19 11:26:05;;;;;;;14.05;12.95;;;24.90;99.90;;;;;;5042078;28;20530;-71
2023/06/19 11:28:30;;;;;;;15.23;13.93;;;25.00;99.90;;;;;;5045728;28;20203;-70
2023/06/19 11:31:04;;;;;;;14.75;13.35;;;25.10;99.90;;;;;;5049244;28;20206;-70
2023/06/19 11:33:30;;;;;;;14.50;13.15;;;25.20;99.90;;;;;;5045880;28;20211;-71
2023/06/19 11:36:00;;;;;;;15.43;14.13;;;25.30;99.90;;;;;;5050657;28;20224;-70
2023/06/19 11:38:26;;;;;;;14.98;13.75;;;25.50;99.90;;;;;;5049671;28;20705;-70
2023/06/19 11:40:54;;;;;;;14.27;13.18;;;25.60;99.90;;;;;;5049953;28;20223;-71
2023/06/19 11:43:30;;;;;;;15.23;13.88;;;25.60;99.90;;;;;;5048501;28;20212;-71
2023/06/19 11:46:06;;;;;;;15.45;13.95;;;25.70;99.90;;;;;;5051101;28;20197;-70
2023/06/19 11:48:32;;;;;;;13.88;12.77;;;25.80;99.70;;;;;;5049278;28;20201;-72
2023/06/19 11:50:58;;;;;;;13.68;12.48;;;25.80;98.80;;;;;;5046824;28;20199;-71
2023/06/19 11:53:24;;;;;;;13.00;11.93;;;26.00;99.70;;;;;;5049679;28;20250;-71
2023/06/19 11:55:51;;;;;;;14.23;12.93;;;26.10;97.90;;;;;;5050226;28;20208;-70
2023/06/19 11:58:18;;;;;;;14.48;13.18;;;26.10;98.30;;;;;;5054110;28;20199;-70
2023/06/19 12:00:43;;;;;;;13.23;11.93;;;26.30;97.70;;;;;;5057928;28;20224;-71
2023/06/19 12:03:09;;;;;;;13.20;12.02;;;26.20;97.00;;;;;;5050243;28;20203;-71
2023/06/19 12:05:35;;;;;;;14.05;12.75;;;26.30;98.30;;;;;;5060140;28;20212;-71
2023/06/19 12:08:02;;;;;;;13.77;12.45;;;26.40;97.10;;;;;;5062876;28;20211;-76
2023/06/19 12:10:28;;;;;;;12.32;11.32;;;26.70;96.50;;;;;;5067328;28;20416;-72
2023/06/19 12:12:53;;;;;;;10.70;9.82;;;26.90;96.20;;;;;;5051379;28;20209;-72
2023/06/19 12:15:19;;;;;;;11.55;10.45;;;27.00;93.30;;;;;;5048067;28;20208;-72
2023/06/19 12:17:46;;;;;;;19.65;9.63;;;27.20;92.20;;;;;;5057790;28;20227;-72
2023/06/19 12:20:13;;;;;;;10.40;9.40;;;27.20;90.80;;;;;;5056107;28;20206;-72
2023/06/19 12:22:39;;;;;;;10.15;9.35;;;27.30;91.50;;;;;;5058948;28;20354;-72
2023/06/19 12:25:05;;;;;;;10.85;10.05;;;27.50;90.60;;;;;;5056087;28;20217;-72
2023/06/19 12:27:30;;;;;;;10.27;9.38;;;27.70;90.70;;;;;;5053264;28;20619;-72